Time;durP1;ratioP1;P1;durP2;ratioP2;P2;SDS_P1;SDS_P2;PMS_P1;PMS_P2;Temp;Humidity;BMP_temperature;BMP_pressure;BME280_temperature;BME280_humidity;BME280_pressure;Samples;Min_cycle;Max_cycle;Signal;HPM_P1;HPM_P2
2023/08/23 00:01:52;;;;;;;20.35;18.35;;;25.60;99.90;;;;;;4989207;28;20044;-50
2023/08/23 00:04:20;;;;;;;22.05;19.90;;;25.60;99.90;;;;;;4994041;28;20473;-50
2023/08/23 00:06:47;;;;;;;21.60;19.48;;;25.60;99.90;;;;;;5047258;28;20041;-50
2023/08/23 00:09:13;;;;;;;20.95;18.90;;;25.70;99.90;;;;;;5055241;28;20029;-50
2023/08/23 00:11:39;;;;;;;22.75;19.42;;;25.70;99.90;;;;;;5055657;28;20029;-50
2023/08/23 00:14:05;;;;;;;21.52;19.42;;;25.70;99.90;;;;;;5055145;28;20086;-50
2023/08/23 00:16:31;;;;;;;20.55;18.67;;;25.70;99.90;;;;;;5055125;28;20021;-51
2023/08/23 00:18:57;;;;;;;22.67;20.30;;;25.70;99.90;;;;;;5055550;28;20040;-50
2023/08/23 00:21:22;;;;;;;23.55;21.05;;;25.70;99.90;;;;;;5055182;28;20055;-51
2023/08/23 00:23:48;;;;;;;23.60;20.75;;;25.60;99.90;;;;;;5046436;28;20037;-51
2023/08/23 00:26:14;;;;;;;22.08;19.80;;;25.60;99.90;;;;;;5037575;28;20036;-51
2023/08/23 00:28:40;;;;;;;21.38;19.20;;;25.70;99.90;;;;;;5016516;28;20045;-50
2023/08/23 00:31:07;;;;;;;22.27;20.17;;;25.50;99.90;;;;;;5034963;28;20033;-51
2023/08/23 00:33:32;;;;;;;22.02;19.73;;;25.50;99.90;;;;;;5037551;28;20041;-51
2023/08/23 00:35:58;;;;;;;25.83;22.02;;;25.40;99.90;;;;;;5036441;28;20037;-50
2023/08/23 00:38:24;;;;;;;22.45;20.23;;;25.40;99.90;;;;;;5054684;28;20052;-50
2023/08/23 00:40:50;;;;;;;20.70;18.50;;;25.50;99.90;;;;;;5055243;28;20103;-51
2023/08/23 00:43:16;;;;;;;21.80;19.08;;;25.40;99.90;;;;;;5054867;28;20428;-50
2023/08/23 00:45:42;;;;;;;22.75;18.67;;;25.30;99.90;;;;;;5054903;28;20029;-51
2023/08/23 00:48:11;;;;;;;20.35;18.30;;;25.40;99.90;;;;;;5054557;28;20139;-50
2023/08/23 00:50:40;;;;;;;20.70;18.73;;;25.30;99.90;;;;;;5054568;28;20029;-51
2023/08/23 00:53:08;;;;;;;19.35;17.50;;;25.30;99.90;;;;;;5036102;28;20071;-50
2023/08/23 00:55:35;;;;;;;22.50;20.00;;;25.30;99.90;;;;;;5054612;28;20066;-51
2023/08/23 00:58:01;;;;;;;21.70;19.50;;;25.30;99.90;;;;;;5036568;28;20078;-50
2023/08/23 01:00:28;;;;;;;21.10;18.92;;;25.10;99.90;;;;;;5054580;28;20120;-50
2023/08/23 01:02:54;;;;;;;22.25;19.30;;;25.10;99.90;;;;;;5019386;28;20044;-50
2023/08/23 01:05:33;;;;;;;22.17;19.83;;;25.20;99.90;;;;;;5054088;28;20033;-50
2023/08/23 01:08:11;;;;;;;21.85;19.35;;;25.20;99.90;;;;;;5053494;28;20056;-50
2023/08/23 01:11:17;;;;;;;22.73;17.90;;;25.20;99.90;;;;;;5054181;28;20036;-51
2023/08/23 01:13:53;;;;;;;21.27;19.10;;;25.20;99.90;;;;;;4970105;28;20048;-51
2023/08/23 01:16:20;;;;;;;21.98;19.80;;;25.20;99.90;;;;;;5054514;28;20032;-51
2023/08/23 01:18:46;;;;;;;22.92;19.58;;;25.20;99.90;;;;;;5054018;28;20144;-50
2023/08/23 01:21:15;;;;;;;21.25;19.33;;;;;;;;;;5054265;28;20086;-50
2023/08/23 01:23:41;;;;;;;20.85;18.75;;;;;;;;;;5053914;28;20384;-50
2023/08/23 01:26:08;;;;;;;24.67;19.98;;;;;;;;;;5054320;28;20108;-51
2023/08/23 01:28:34;;;;;;;21.85;19.50;;;;;;;;;;5053907;28;20025;-51
2023/08/23 01:31:02;;;;;;;22.35;19.45;;;;;;;;;;5053820;28;20028;-50
2023/08/23 01:34:00;;;;;;;22.08;19.75;;;;;;;;;;5053570;28;20614;-51
2023/08/23 01:36:28;;;;;;;20.70;18.65;;;;;;;;;;4999307;28;20079;-50
2023/08/23 01:38:55;;;;;;;21.08;18.60;;;;;;;;;;5053713;28;20464;-50
2023/08/23 01:41:22;;;;;;;21.58;18.83;;;25.10;99.90;;;;;;5054012;28;20025;-50
2023/08/23 01:43:47;;;;;;;21.38;19.27;;;25.10;99.90;;;;;;5053846;28;20037;-51
2023/08/23 01:46:14;;;;;;;20.63;18.67;;;25.10;99.90;;;;;;5053506;28;20100;-51
2023/08/23 01:48:39;;;;;;;22.08;18.60;;;25.10;99.90;;;;;;5053490;28;20036;-50
2023/08/23 01:51:06;;;;;;;23.50;19.42;;;25.10;99.90;;;;;;5053687;28;20025;-50
2023/08/23 01:53:32;;;;;;;20.77;18.55;;;25.00;99.90;;;;;;5053454;28;20029;-51
2023/08/23 01:55:59;;;;;;;20.67;18.30;;;25.00;99.90;;;;;;5053851;28;20025;-50
2023/08/23 01:58:25;;;;;;;21.10;18.98;;;24.90;99.90;;;;;;5034899;28;20071;-51
2023/08/23 02:00:52;;;;;;;22.13;19.70;;;24.90;99.90;;;;;;5053346;28;20033;-50
2023/08/23 02:03:18;;;;;;;25.10;21.13;;;25.00;99.90;;;;;;5053217;28;20033;-50
2023/08/23 02:05:44;;;;;;;22.65;20.27;;;25.00;99.90;;;;;;5053776;28;20082;-50
2023/08/23 02:08:11;;;;;;;22.80;20.10;;;;;;;;;;5053253;28;20105;-50
2023/08/23 02:10:37;;;;;;;23.80;21.30;;;24.00;99.90;;;;;;5053065;28;20532;-51
2023/08/23 02:13:06;;;;;;;23.98;21.48;;;;;;;;;;5053192;28;20056;-50
2023/08/23 02:15:32;;;;;;;23.42;21.02;;;23.60;99.90;;;;;;5052968;28;20029;-51
2023/08/23 02:17:58;;;;;;;23.80;21.35;;;23.50;99.90;;;;;;5053410;28;20111;-50
2023/08/23 02:20:24;;;;;;;23.90;21.35;;;23.50;99.90;;;;;;5053040;28;20126;-51
2023/08/23 02:22:49;;;;;;;24.27;21.75;;;23.80;99.90;;;;;;5052928;28;20237;-50
2023/08/23 02:25:15;;;;;;;22.98;20.50;;;23.90;99.90;;;;;;5052874;28;20583;-51
2023/08/23 02:27:41;;;;;;;25.30;20.00;;;24.10;99.90;;;;;;5053162;28;20036;-50
2023/08/23 02:30:07;;;;;;;24.00;21.40;;;24.20;99.90;;;;;;5053142;28;20487;-50
2023/08/23 02:32:34;;;;;;;23.63;20.98;;;24.10;99.90;;;;;;5034347;28;20045;-51
2023/08/23 02:35:00;;;;;;;22.92;20.58;;;24.10;99.90;;;;;;5052653;28;20049;-50
2023/08/23 02:37:26;;;;;;;21.90;19.85;;;24.20;99.90;;;;;;5053156;28;20107;-51
2023/08/23 02:39:51;;;;;;;23.73;20.73;;;24.40;99.90;;;;;;5053365;28;20435;-51
2023/08/23 02:42:17;;;;;;;23.85;21.42;;;24.20;99.90;;;;;;5053018;28;20049;-51
2023/08/23 02:44:43;;;;;;;22.70;20.52;;;24.00;99.90;;;;;;5001573;28;20048;-50
2023/08/23 02:47:08;;;;;;;22.30;19.95;;;24.00;99.90;;;;;;5018001;28;20035;-50
2023/08/23 02:49:34;;;;;;;23.50;20.95;;;24.10;99.90;;;;;;5052969;28;20059;-51
2023/08/23 02:52:00;;;;;;;34.85;20.42;;;24.30;99.90;;;;;;5018224;28;20040;-50
2023/08/23 02:54:25;;;;;;;24.85;20.40;;;24.40;99.90;;;;;;5017676;28;20048;-51
2023/08/23 02:56:51;;;;;;;22.23;18.88;;;24.40;99.90;;;;;;5017922;28;20093;-50
2023/08/23 02:59:17;;;;;;;23.05;19.48;;;24.50;99.90;;;;;;5053166;28;20107;-50
2023/08/23 03:01:42;;;;;;;23.25;20.85;;;24.50;99.90;;;;;;5052674;28;20040;-51
2023/08/23 03:04:08;;;;;;;23.90;21.38;;;24.50;99.90;;;;;;5052703;28;20044;-50
2023/08/23 03:06:34;;;;;;;21.95;19.63;;;24.50;99.90;;;;;;5017571;28;20039;-51
2023/08/23 03:09:00;;;;;;;23.98;21.48;;;24.50;99.90;;;;;;5017698;28;20037;-50
2023/08/23 03:11:25;;;;;;;25.63;19.95;;;24.60;99.90;;;;;;5033996;28;20041;-51
2023/08/23 03:13:51;;;;;;;23.70;20.58;;;24.60;99.90;;;;;;5052849;28;20033;-50
2023/08/23 03:16:17;;;;;;;22.63;20.23;;;24.60;99.90;;;;;;5052595;28;20032;-50
2023/08/23 03:18:42;;;;;;;24.60;19.65;;;24.60;99.90;;;;;;5017500;28;20036;-51
2023/08/23 03:21:08;;;;;;;23.83;20.48;;;24.60;99.90;;;;;;5052924;28;20028;-51
2023/08/23 03:23:34;;;;;;;24.30;20.10;;;24.60;99.90;;;;;;5060478;28;20021;-51
2023/08/23 03:26:00;;;;;;;22.80;19.35;;;24.60;99.90;;;;;;5072699;28;20470;-50
2023/08/23 03:28:25;;;;;;;22.77;20.60;;;24.60;99.90;;;;;;5021051;28;20387;-51
2023/08/23 03:30:51;;;;;;;24.10;21.05;;;24.50;99.90;;;;;;5021364;28;20040;-50
2023/08/23 03:33:17;;;;;;;21.20;19.10;;;24.60;99.90;;;;;;5024223;28;20033;-51
2023/08/23 03:35:43;;;;;;;22.85;20.33;;;24.50;99.90;;;;;;5076203;28;20119;-50
2023/08/23 03:38:08;;;;;;;30.10;20.25;;;24.40;99.90;;;;;;5024576;28;20036;-50
2023/08/23 03:40:38;;;;;;;23.70;21.30;;;24.40;99.90;;;;;;5075915;28;20430;-51
2023/08/23 03:43:04;;;;;;;22.02;19.63;;;24.40;99.90;;;;;;5076178;28;20028;-50
2023/08/23 03:45:30;;;;;;;22.40;20.27;;;24.40;99.90;;;;;;5075840;28;20071;-51
2023/08/23 03:47:56;;;;;;;24.20;21.42;;;24.40;99.90;;;;;;5075638;28;20036;-50
2023/08/23 03:50:22;;;;;;;22.30;19.98;;;24.30;99.90;;;;;;5075748;28;20029;-50
2023/08/23 03:52:48;;;;;;;26.60;22.27;;;24.30;99.90;;;;;;5075685;28;20107;-50
2023/08/23 03:55:13;;;;;;;24.30;21.75;;;24.30;99.90;;;;;;5075737;28;20028;-50
2023/08/23 03:57:39;;;;;;;23.85;21.48;;;24.20;99.90;;;;;;5075407;28;20028;-50
2023/08/23 04:00:06;;;;;;;24.08;21.52;;;24.10;99.90;;;;;;5075651;28;20070;-50
2023/08/23 04:02:33;;;;;;;24.05;21.58;;;24.20;99.90;;;;;;5075512;28;20039;-50
2023/08/23 04:05:01;;;;;;;27.58;22.10;;;24.10;99.90;;;;;;5075764;28;20452;-50
2023/08/23 04:07:26;;;;;;;23.52;19.70;;;24.10;99.90;;;;;;5024662;28;20043;-50
2023/08/23 04:09:52;;;;;;;23.40;21.20;;;24.10;99.90;;;;;;5075284;28;20383;-50
2023/08/23 04:12:18;;;;;;;25.92;21.83;;;24.00;99.90;;;;;;5075527;28;20024;-50
2023/08/23 04:14:44;;;;;;;25.13;21.98;;;24.00;99.90;;;;;;5075344;28;20033;-50
2023/08/23 04:17:09;;;;;;;22.88;20.48;;;23.90;99.90;;;;;;5023815;28;20052;-50
2023/08/23 04:19:36;;;;;;;24.95;22.13;;;24.00;99.90;;;;;;5075085;28;20036;-50
2023/08/23 04:22:02;;;;;;;24.42;22.00;;;24.00;99.90;;;;;;5023526;28;20032;-50
2023/08/23 04:24:28;;;;;;;23.88;21.58;;;24.00;99.90;;;;;;5075432;28;20082;-50
2023/08/23 04:26:53;;;;;;;28.55;22.75;;;23.90;99.90;;;;;;5075229;28;20400;-50
2023/08/23 04:29:19;;;;;;;27.42;22.90;;;24.00;99.90;;;;;;5075054;28;20028;-50
2023/08/23 04:31:45;;;;;;;29.27;22.77;;;24.10;99.90;;;;;;5039613;28;20033;-50
2023/08/23 04:34:11;;;;;;;26.83;22.55;;;24.20;99.90;;;;;;5074773;28;20048;-50
2023/08/23 04:36:36;;;;;;;28.73;22.02;;;24.30;99.90;;;;;;5023205;28;20041;-50
2023/08/23 04:39:02;;;;;;;25.10;22.30;;;24.40;99.90;;;;;;5074934;28;20030;-50
2023/08/23 04:41:28;;;;;;;29.85;24.25;;;24.50;99.90;;;;;;5023435;28;20047;-50
2023/08/23 04:43:53;;;;;;;26.88;22.65;;;23.90;99.90;;;;;;5074669;28;20040;-50
2023/08/23 04:46:19;;;;;;;29.05;22.58;;;23.50;99.90;;;;;;5074843;28;20533;-50
2023/08/23 04:48:45;;;;;;;25.65;22.85;;;23.50;99.90;;;;;;5074693;28;20035;-50
2023/08/23 04:51:12;;;;;;;30.35;23.35;;;23.40;99.90;;;;;;5074598;28;20054;-50
2023/08/23 04:53:38;;;;;;;24.90;21.98;;;23.60;99.90;;;;;;5074450;28;20025;-50
2023/08/23 04:56:04;;;;;;;24.92;21.85;;;23.50;99.90;;;;;;5074604;28;20094;-50
2023/08/23 04:58:32;;;;;;;25.05;22.08;;;23.80;99.90;;;;;;5022986;28;20480;-50
2023/08/23 05:01:03;;;;;;;23.75;21.20;;;24.00;99.90;;;;;;5024022;28;20036;-50
2023/08/23 05:03:29;;;;;;;25.70;21.95;;;24.20;99.90;;;;;;5074710;28;20103;-50
2023/08/23 05:05:55;;;;;;;31.95;22.77;;;24.00;99.90;;;;;;5074295;28;20107;-50
2023/08/23 05:08:20;;;;;;;29.15;22.77;;;24.50;99.90;;;;;;5074242;28;20020;-50
2023/08/23 05:10:52;;;;;;;26.30;23.50;;;24.70;99.90;;;;;;5074014;28;20545;-50
2023/08/23 05:13:18;;;;;;;28.50;22.95;;;24.90;99.90;;;;;;5074127;28;20074;-50
2023/08/23 05:15:44;;;;;;;25.05;22.55;;;25.10;99.90;;;;;;5056223;28;20029;-50
2023/08/23 05:18:09;;;;;;;28.90;22.92;;;25.20;99.90;;;;;;5074669;28;20480;-49
2023/08/23 05:20:38;;;;;;;28.42;23.95;;;25.30;99.90;;;;;;5074012;28;20029;-50
2023/08/23 05:23:04;;;;;;;29.55;22.75;;;25.40;99.90;;;;;;5073955;28;20138;-50
2023/08/23 05:25:29;;;;;;;29.02;22.58;;;25.50;99.90;;;;;;5073867;28;20080;-49
2023/08/23 05:27:55;;;;;;;27.60;23.85;;;25.70;99.90;;;;;;5073429;28;20032;-50
2023/08/23 05:30:21;;;;;;;30.63;26.25;;;25.60;99.90;;;;;;5022583;28;20048;-50
2023/08/23 05:32:47;;;;;;;34.38;28.25;;;25.60;99.90;;;;;;5073832;28;20025;-50
2023/08/23 05:35:12;;;;;;;34.83;31.20;;;25.60;99.90;;;;;;5022022;28;20139;-50
2023/08/23 05:37:39;;;;;;;37.75;30.88;;;25.40;99.90;;;;;;5055612;28;20102;-50
2023/08/23 05:40:07;;;;;;;33.58;30.13;;;25.30;99.90;;;;;;5073902;28;20055;-50
2023/08/23 05:42:33;;;;;;;29.40;26.02;;;25.30;99.90;;;;;;4962903;28;20485;-50
2023/08/23 05:44:59;;;;;;;32.35;28.83;;;25.60;99.90;;;;;;4979123;28;20052;-50
2023/08/23 05:47:25;;;;;;;37.60;31.33;;;25.80;99.90;;;;;;4972370;28;20053;-50
2023/08/23 05:49:51;;;;;;;42.78;32.78;;;25.60;99.90;;;;;;4972538;28;20046;-50
2023/08/23 05:52:17;;;;;;;35.95;29.17;;;25.70;99.90;;;;;;4972734;28;20074;-50
2023/08/23 05:54:43;;;;;;;35.00;30.30;;;25.50;99.90;;;;;;4972019;28;20137;-50
2023/08/23 05:57:08;;;;;;;41.88;31.67;;;25.60;99.90;;;;;;4956082;28;20038;-49
2023/08/23 05:59:34;;;;;;;42.47;32.20;;;25.60;99.90;;;;;;4972463;28;20027;-50
2023/08/23 06:02:00;;;;;;;36.33;30.40;;;25.70;99.90;;;;;;4954200;28;20087;-50
2023/08/23 06:04:26;;;;;;;33.33;28.85;;;;;;;;;;4953177;29;20078;-50
2023/08/23 06:06:52;;;;;;;34.20;30.08;;;26.30;99.90;;;;;;4936963;29;20047;-50
2023/08/23 06:09:18;;;;;;;35.85;27.83;;;;;;;;;;4921234;29;20078;-50
2023/08/23 06:11:44;;;;;;;32.70;27.55;;;26.80;99.90;;;;;;4953083;28;20031;-50
2023/08/23 06:14:18;;;;;;;32.83;27.77;;;;;;;;;;4952939;28;20090;-50
2023/08/23 06:16:44;;;;;;;29.70;26.60;;;;;;;;;;4953105;28;20075;-50
2023/08/23 06:19:11;;;;;;;32.75;26.23;;;27.50;99.90;;;;;;4995761;28;20037;-50
2023/08/23 06:21:37;;;;;;;29.52;25.50;;;;;;;;;;5002410;28;20071;-50
2023/08/23 06:24:04;;;;;;;18.52;16.80;;;27.80;99.90;;;;;;5052761;28;20086;-50
2023/08/23 06:26:29;;;;;;;22.92;18.20;;;27.90;99.90;;;;;;5053126;28;20029;-49
2023/08/23 06:28:55;;;;;;;19.92;17.75;;;28.10;99.90;;;;;;5001669;28;20036;-50
2023/08/23 06:31:21;;;;;;;21.55;17.25;;;28.10;99.90;;;;;;5018143;28;20041;-49
2023/08/23 06:33:47;;;;;;;21.65;18.60;;;28.20;99.90;;;;;;5053093;28;20056;-50
2023/08/23 06:36:13;;;;;;;20.30;17.85;;;28.30;99.90;;;;;;5053223;28;20083;-50
2023/08/23 06:38:41;;;;;;;20.33;16.10;;;28.40;99.90;;;;;;5053044;28;20464;-50
2023/08/23 06:41:07;;;;;;;20.42;18.25;;;28.60;99.90;;;;;;5053286;28;20025;-49
2023/08/23 06:43:32;;;;;;;19.70;17.70;;;28.60;99.90;;;;;;5052949;28;20033;-50
2023/08/23 06:46:00;;;;;;;17.25;15.55;;;28.80;99.90;;;;;;5052835;28;20472;-50
2023/08/23 06:48:26;;;;;;;18.25;16.55;;;28.80;99.90;;;;;;5049677;28;20488;-50
2023/08/23 06:50:52;;;;;;;18.17;16.33;;;28.90;99.90;;;;;;5066132;28;20032;-50
2023/08/23 06:53:18;;;;;;;17.80;15.98;;;29.00;99.90;;;;;;5067573;28;20061;-50
2023/08/23 06:55:44;;;;;;;18.05;16.35;;;;;;;;;;4972308;28;20456;-49
2023/08/23 06:58:10;;;;;;;17.13;15.52;;;;;;;;;;5072722;28;20035;-50
2023/08/23 07:00:36;;;;;;;17.48;15.73;;;;;;;;;;5072461;28;20108;-49
2023/08/23 07:03:03;;;;;;;26.75;16.98;;;;;;;;;;5072420;28;20032;-50
2023/08/23 07:05:29;;;;;;;16.42;14.73;;;;;;;;;;5064761;28;20029;-50
2023/08/23 07:07:55;;;;;;;17.13;15.38;;;;;;;;;;5073820;28;20460;-50
2023/08/23 07:10:21;;;;;;;18.25;16.45;;;;;;;;;;5040935;28;20032;-50
2023/08/23 07:12:48;;;;;;;18.17;15.27;;;;;;;;;;5076297;28;20505;-50
2023/08/23 07:15:14;;;;;;;21.58;16.27;;;;;;;;;;5076331;28;20120;-50
2023/08/23 07:17:40;;;;;;;16.73;14.93;;;;;;;;;;5076602;28;20025;-50
2023/08/23 07:20:09;;;;;;;16.90;15.10;;;;;;;;;;5076087;28;20054;-49
2023/08/23 07:22:35;;;;;;;16.83;15.23;;;29.70;99.90;;;;;;5076035;28;20070;-50
2023/08/23 07:25:01;;;;;;;17.58;15.90;;;29.70;99.90;;;;;;5075948;28;20068;-50
2023/08/23 07:27:27;;;;;;;22.90;15.43;;;;;;;;;;5076104;28;20036;-50
2023/08/23 07:29:53;;;;;;;17.38;15.65;;;;;;;;;;5024517;28;20036;-49
2023/08/23 07:32:19;;;;;;;17.95;15.70;;;;;;;;;;5022672;28;20045;-50
2023/08/23 07:34:45;;;;;;;19.13;16.20;;;;;;;;;;5022325;28;20140;-50
2023/08/23 07:37:11;;;;;;;18.45;15.48;;;;;;;;;;5021042;28;20092;-50
2023/08/23 07:39:38;;;;;;;17.50;15.68;;;;;;;;;;5019693;28;20037;-51
2023/08/23 07:42:04;;;;;;;18.33;15.70;;;30.50;99.90;;;;;;5073072;28;20063;-50
2023/08/23 07:44:29;;;;;;;17.55;15.63;;;30.70;99.90;;;;;;5072254;28;20094;-49
2023/08/23 07:46:55;;;;;;;19.08;16.70;;;;;;;;;;5063943;28;20520;-50
2023/08/23 07:49:21;;;;;;;18.85;16.45;;;;;;;;;;5064119;28;20029;-49
2023/08/23 07:51:48;;;;;;;15.57;13.90;;;;;;;;;;5009836;28;20040;-48
2023/08/23 07:54:14;;;;;;;22.67;15.52;;;31.40;99.90;;;;;;5065352;28;20021;-48
2023/08/23 07:56:39;;;;;;;17.27;14.82;;;31.40;99.90;;;;;;5065474;28;20021;-50
2023/08/23 07:59:05;;;;;;;19.45;16.98;;;31.50;99.90;;;;;;5018371;28;20040;-49
2023/08/23 08:01:31;;;;;;;17.88;16.10;;;31.50;99.90;;;;;;5063600;28;20028;-51
2023/08/23 08:03:58;;;;;;;15.65;14.02;;;31.70;99.90;;;;;;5066947;28;20082;-49
2023/08/23 08:06:24;;;;;;;17.45;15.25;;;31.90;99.90;;;;;;5074387;28;20443;-49
2023/08/23 08:08:49;;;;;;;17.23;15.43;;;32.00;99.90;;;;;;5075724;28;20086;-50
2023/08/23 08:11:15;;;;;;;17.50;15.77;;;32.30;99.90;;;;;;5023548;28;20423;-50
2023/08/23 08:13:42;;;;;;;16.42;14.90;;;;;;;;;;5075299;28;20036;-50
2023/08/23 08:16:12;;;;;;;15.77;14.13;;;;;;;;;;5075262;28;20074;-51
2023/08/23 08:18:38;;;;;;;17.73;14.93;;;;;;;;;;5074722;28;20024;-51
2023/08/23 08:21:04;;;;;;;16.80;15.07;;;;;;;;;;5075160;28;20039;-52
2023/08/23 08:23:30;;;;;;;20.45;14.90;;;;;;;;;;5075356;28;20464;-51
2023/08/23 08:25:57;;;;;;;19.05;14.18;;;33.30;99.90;;;;;;5010078;28;20389;-52
2023/08/23 08:28:23;;;;;;;16.50;13.60;;;;;;;;;;5060976;28;20149;-51
2023/08/23 08:30:49;;;;;;;15.30;13.68;;;;;;;;;;5074721;28;20033;-52
2023/08/23 08:33:15;;;;;;;19.05;13.73;;;;;;;;;;5023424;28;20032;-52
2023/08/23 08:35:41;;;;;;;18.42;13.73;;;34.00;99.90;;;;;;5074651;28;20047;-51
2023/08/23 08:38:08;;;;;;;19.23;14.82;;;;;;;;;;5052671;28;20024;-55
2023/08/23 08:40:34;;;;;;;15.77;13.95;;;;;;;;;;5064911;28;20024;-52
2023/08/23 08:43:00;;;;;;;16.02;14.32;;;34.60;99.90;;;;;;5015152;28;20128;-51
2023/08/23 08:45:26;;;;;;;15.00;12.55;;;;;;;;;;5005160;28;20135;-52
2023/08/23 08:47:52;;;;;;;19.60;17.58;;;34.90;99.90;;;;;;5059657;28;20036;-51
2023/08/23 08:50:18;;;;;;;15.95;13.30;;;;;;;;;;5063515;28;20125;-51
2023/08/23 08:52:50;;;;;;;18.88;14.07;;;35.10;99.90;;;;;;5073804;28;20036;-51
2023/08/23 08:55:18;;;;;;;21.30;13.38;;;34.90;99.90;;;;;;5071566;28;20025;-50
2023/08/23 08:57:45;;;;;;;14.65;12.88;;;;;;;;;;5045707;28;20037;-50
2023/08/23 09:00:11;;;;;;;14.45;12.27;;;35.30;99.90;;;;;;5065629;28;20427;-51
2023/08/23 09:02:38;;;;;;;14.07;11.13;;;;;;;;;;5011274;28;20098;-51
2023/08/23 09:05:05;;;;;;;15.90;14.38;;;;;;;;;;5068317;28;20667;-50
2023/08/23 09:07:32;;;;;;;18.92;15.40;;;;;;;;;;5061800;28;20028;-52
2023/08/23 09:09:58;;;;;;;14.38;12.05;;;;;;;;;;5068167;28;20032;-52
2023/08/23 09:12:24;;;;;;;15.63;14.23;;;;;;;;;;5065168;28;20017;-50
2023/08/23 09:14:50;;;;;;;15.15;11.88;;;;;;;;;;5032264;28;20509;-51
2023/08/23 09:17:20;;;;;;;15.57;12.55;;;;;;;;;;5054303;28;20384;-50
2023/08/23 09:19:47;;;;;;;16.35;11.60;;;;;;;;;;5072130;28;20024;-50
2023/08/23 09:22:19;;;;;;;13.35;11.52;;;;;;;;;;5073961;28;20033;-50
2023/08/23 09:24:45;;;;;;;14.95;12.60;;;37.30;99.90;;;;;;5071122;28;20067;-51
2023/08/23 09:27:11;;;;;;;14.57;12.93;;;37.30;99.90;;;;;;5054025;28;20083;-50
2023/08/23 09:29:37;;;;;;;18.98;12.40;;;;;;;;;;5052953;28;20029;-51
2023/08/23 09:32:05;;;;;;;14.23;12.75;;;37.50;99.90;;;;;;5072402;28;20029;-51
2023/08/23 09:34:31;;;;;;;15.35;12.85;;;37.30;99.90;;;;;;5021900;28;20048;-52
2023/08/23 09:37:06;;;;;;;14.77;12.50;;;;;;;;;;5073903;28;20365;-51
2023/08/23 09:39:33;;;;;;;15.15;13.65;;;;;;;;;;5073617;28;20032;-50
2023/08/23 09:42:03;;;;;;;14.77;13.23;;;;;;;;;;5018594;28;20433;-51
2023/08/23 09:44:55;;;;;;;14.88;13.30;;;;;;;;;;5053640;28;20044;-50
2023/08/23 09:47:22;;;;;;;14.73;12.88;;;;;;;;;;5049897;28;20047;-51
2023/08/23 09:49:48;;;;;;;14.38;12.73;;;38.00;99.90;;;;;;5030635;28;20040;-50
2023/08/23 09:52:15;;;;;;;15.80;13.02;;;;;;;;;;5073581;28;20032;-50
2023/08/23 09:54:54;;;;;;;15.70;12.50;;;38.20;99.90;;;;;;5073459;28;20056;-51
2023/08/23 09:57:21;;;;;;;14.80;12.98;;;37.70;99.90;;;;;;5073777;28;20024;-50
2023/08/23 09:59:47;;;;;;;13.85;12.38;;;37.80;99.90;;;;;;5073287;28;20028;-51
2023/08/23 10:02:16;;;;;;;13.65;12.25;;;37.50;99.40;;;;;;5073526;28;20074;-51
2023/08/23 10:04:43;;;;;;;14.52;13.15;;;37.60;99.70;;;;;;5073654;28;20036;-51
2023/08/23 10:07:09;;;;;;;15.63;14.23;;;37.80;99.90;;;;;;5066926;28;20456;-50
2023/08/23 10:09:39;;;;;;;17.85;15.95;;;37.40;99.90;;;;;;5073040;28;20035;-50
2023/08/23 10:12:07;;;;;;;19.63;15.73;;;37.60;99.90;;;;;;5073133;28;20032;-50
2023/08/23 10:14:39;;;;;;;14.13;12.63;;;38.30;99.90;;;;;;5073585;28;20210;-51
2023/08/23 10:17:09;;;;;;;15.77;13.88;;;38.10;99.90;;;;;;5073374;28;20024;-50
2023/08/23 10:19:35;;;;;;;18.40;13.35;;;38.60;99.90;;;;;;5070719;28;20029;-50
2023/08/23 10:22:00;;;;;;;13.57;12.18;;;38.30;99.90;;;;;;5072422;28;20024;-51
2023/08/23 10:24:33;;;;;;;14.48;13.00;;;38.40;99.90;;;;;;5072927;28;20482;-50
2023/08/23 10:27:08;;;;;;;13.23;11.90;;;38.40;99.90;;;;;;5072951;28;20115;-50
2023/08/23 10:29:37;;;;;;;14.63;12.27;;;38.70;99.90;;;;;;5072349;28;20044;-50
2023/08/23 10:32:11;;;;;;;13.90;12.57;;;39.30;99.90;;;;;;5071563;28;20021;-53
2023/08/23 10:34:38;;;;;;;13.80;12.15;;;39.40;99.50;;;;;;5065460;28;20060;-51
2023/08/23 10:37:17;;;;;;;17.27;12.85;;;39.60;99.50;;;;;;5063453;28;20047;-51
2023/08/23 10:39:50;;;;;;;21.25;13.13;;;;;;;;;;5057826;28;20037;-50
2023/08/23 10:42:17;;;;;;;12.85;11.57;;;;;;;;;;5057254;28;20029;-50
2023/08/23 10:44:59;;;;;;;14.90;11.57;;;40.30;99.90;;;;;;5057272;28;20036;-50
2023/08/23 10:47:26;;;;;;;12.57;11.43;;;40.50;99.90;;;;;;5056892;28;20143;-50
2023/08/23 10:49:52;;;;;;;12.80;11.60;;;40.40;98.40;;;;;;5071858;28;20032;-50
2023/08/23 10:52:21;;;;;;;12.68;11.48;;;39.90;97.90;;;;;;5076847;28;20028;-49
2023/08/23 10:54:47;;;;;;;16.58;11.52;;;40.20;98.00;;;;;;5076852;28;20054;-51
2023/08/23 10:57:12;;;;;;;12.48;11.20;;;40.30;98.80;;;;;;5077069;28;20070;-50
2023/08/23 10:59:38;;;;;;;13.85;12.25;;;40.30;97.80;;;;;;5077050;28;20029;-50
2023/08/23 11:02:06;;;;;;;15.57;11.15;;;40.40;98.20;;;;;;5076792;28;20107;-50
2023/08/23 11:04:33;;;;;;;13.82;12.23;;;39.60;97.80;;;;;;5076474;28;20086;-51
2023/08/23 11:06:58;;;;;;;14.07;11.60;;;39.10;97.40;;;;;;5025248;28;20059;-50
2023/08/23 11:09:24;;;;;;;14.43;12.13;;;39.30;97.60;;;;;;5076549;28;20032;-50
2023/08/23 11:11:50;;;;;;;16.23;11.75;;;39.70;98.00;;;;;;5024693;28;20044;-50
2023/08/23 11:14:16;;;;;;;12.77;11.02;;;40.00;97.50;;;;;;5041399;28;20040;-50
2023/08/23 11:16:43;;;;;;;12.73;11.50;;;40.40;97.60;;;;;;5076201;28;20021;-50
2023/08/23 11:19:10;;;;;;;11.90;10.80;;;40.10;97.20;;;;;;5024789;28;20040;-50
2023/08/23 11:21:36;;;;;;;12.68;11.48;;;39.80;96.70;;;;;;5076197;28;20142;-50
2023/08/23 11:24:06;;;;;;;14.40;12.05;;;39.60;97.20;;;;;;5024657;28;20145;-50
2023/08/23 11:26:35;;;;;;;14.38;12.88;;;38.80;96.70;;;;;;5025265;28;20093;-50
2023/08/23 11:29:02;;;;;;;13.20;12.00;;;39.00;97.30;;;;;;5024355;28;20552;-50
2023/08/23 11:31:29;;;;;;;15.70;12.15;;;38.70;96.70;;;;;;5024299;28;20515;-50
2023/08/23 11:33:57;;;;;;;12.40;11.35;;;39.00;96.60;;;;;;5021177;28;20057;-50
2023/08/23 11:36:22;;;;;;;12.73;11.43;;;39.70;97.40;;;;;;5053875;28;20397;-50
2023/08/23 11:38:49;;;;;;;13.68;11.25;;;39.60;96.50;;;;;;5055882;28;20032;-50
2023/08/23 11:41:25;;;;;;;12.20;11.00;;;39.90;96.70;;;;;;5054927;28;20029;-51
2023/08/23 11:43:53;;;;;;;11.40;10.38;;;40.10;95.90;;;;;;5050958;28;20037;-50
2023/08/23 11:46:19;;;;;;;12.70;10.98;;;;;;;;;;5055142;28;20033;-50
2023/08/23 11:48:45;;;;;;;12.05;10.40;;;40.70;97.10;;;;;;5035875;28;20041;-52
2023/08/23 11:51:11;;;;;;;12.80;11.20;;;;;;;;;;5054846;28;20132;-51
2023/08/23 11:53:47;;;;;;;13.63;12.23;;;41.10;96.00;;;;;;5025049;28;20099;-51
2023/08/23 11:56:14;;;;;;;14.00;12.65;;;40.80;95.60;;;;;;5046844;28;20060;-51
2023/08/23 11:58:40;;;;;;;12.05;10.80;;;41.10;94.80;;;;;;5035678;28;20429;-51
2023/08/23 12:01:05;;;;;;;11.95;10.75;;;40.70;94.20;;;;;;5036192;28;20080;-51
2023/08/23 12:03:31;;;;;;;12.70;11.48;;;40.80;94.30;;;;;;5035138;28;20036;-51
2023/08/23 12:05:57;;;;;;;12.65;10.63;;;41.10;95.30;;;;;;4984304;28;20042;-51
2023/08/23 12:08:23;;;;;;;12.65;10.75;;;41.10;94.80;;;;;;5035571;28;20044;-51
2023/08/23 12:11:08;;;;;;;16.42;12.90;;;41.10;94.70;;;;;;5035627;28;20172;-51
2023/08/23 12:13:36;;;;;;;15.18;11.80;;;40.70;94.30;;;;;;4993748;28;20037;-52
2023/08/23 12:16:01;;;;;;;13.35;11.27;;;40.90;93.60;;;;;;4993819;28;20062;-51
2023/08/23 12:18:27;;;;;;;12.80;10.95;;;40.60;93.90;;;;;;4993780;28;20465;-51
2023/08/23 12:20:53;;;;;;;11.90;10.25;;;40.60;93.80;;;;;;4993671;28;20418;-51
2023/08/23 12:23:19;;;;;;;10.02;9.23;;;40.80;94.50;;;;;;4945287;28;20045;-52
2023/08/23 12:25:45;;;;;;;10.43;9.43;;;40.90;93.50;;;;;;4993445;28;20041;-52
2023/08/23 12:28:10;;;;;;;10.80;9.70;;;40.90;93.40;;;;;;4993583;28;20034;-51
2023/08/23 12:30:36;;;;;;;12.73;9.85;;;41.20;93.40;;;;;;4961173;28;20046;-52
2023/08/23 12:33:02;;;;;;;11.43;10.32;;;41.10;93.10;;;;;;4993599;28;20100;-51
2023/08/23 12:35:28;;;;;;;12.93;9.95;;;40.90;93.10;;;;;;5011192;28;20085;-51
2023/08/23 12:37:53;;;;;;;10.52;9.52;;;40.90;93.30;;;;;;5012481;28;20037;-52
2023/08/23 12:40:19;;;;;;;10.52;9.63;;;40.50;93.00;;;;;;4964000;28;20096;-51
2023/08/23 12:42:45;;;;;;;40.17;19.00;;;41.00;93.60;;;;;;5012962;28;20535;-51
2023/08/23 12:45:11;;;;;;;11.52;10.45;;;40.40;93.10;;;;;;5044920;28;20057;-51
2023/08/23 12:47:36;;;;;;;11.75;10.48;;;40.40;93.10;;;;;;5054791;28;20116;-52